createdAt,value
2018-04-23T00:00:24.689Z,1016.5
2018-04-23T00:01:26.259Z,1016.5
2018-04-23T00:02:27.831Z,1016.5
2018-04-23T00:03:29.391Z,1016.6
2018-04-23T00:04:30.939Z,1016.6
2018-04-23T00:05:32.518Z,1016.6
2018-04-23T00:06:34.089Z,1016.6
2018-04-23T00:07:35.643Z,1016.6
2018-04-23T00:08:37.203Z,1016.6
2018-04-23T00:09:38.770Z,1016.6
2018-04-23T00:10:40.341Z,1016.6
2018-04-23T00:11:41.904Z,1016.6
2018-04-23T00:12:43.478Z,1016.6
2018-04-23T00:13:45.055Z,1016.6
2018-04-23T00:14:46.614Z,1016.6
2018-04-23T00:15:48.169Z,1016.6
2018-04-23T00:16:49.726Z,1016.6
2018-04-23T00:17:51.285Z,1016.6
2018-04-23T00:18:52.837Z,1016.6
2018-04-23T00:19:54.406Z,1016.6
2018-04-23T00:20:55.969Z,1016.7
2018-04-23T00:21:57.524Z,1016.6
2018-04-23T00:22:59.082Z,1016.6
2018-04-23T00:24:00.644Z,1016.6
2018-04-23T00:25:02.193Z,1016.7
2018-04-23T00:26:03.763Z,1016.6
2018-04-23T00:27:05.328Z,1016.6
2018-04-23T00:28:06.898Z,1016.7
2018-04-23T00:29:08.458Z,1016.6
2018-04-23T00:30:10.014Z,1016.6
2018-04-23T00:31:11.557Z,1016.6
2018-04-23T00:32:13.112Z,1016.6
2018-04-23T00:33:14.696Z,1016.6
2018-04-23T00:34:16.289Z,1016.6
2018-04-23T00:35:17.862Z,1016.6
2018-04-23T00:36:19.415Z,1016.6
2018-04-23T00:37:21.729Z,1016.6
2018-04-23T00:38:23.549Z,1016.6
2018-04-23T00:39:24.911Z,1016.6
2018-04-23T00:40:26.463Z,1016.6
2018-04-23T00:41:28.025Z,1016.6
2018-04-23T00:42:29.571Z,1016.6
2018-04-23T00:43:31.134Z,1016.5
2018-04-23T00:44:32.698Z,1016.5
2018-04-23T00:45:34.262Z,1016.5
2018-04-23T00:46:35.820Z,1016.5
2018-04-23T00:47:37.382Z,1016.5
2018-04-23T00:48:38.948Z,1016.5
2018-04-23T00:49:40.514Z,1016.5
2018-04-23T00:50:42.078Z,1016.4
2018-04-23T00:51:43.646Z,1016.4
2018-04-23T00:52:45.211Z,1016.4
2018-04-23T00:53:46.794Z,1016.3
2018-04-23T00:54:48.362Z,1016.3
2018-04-23T00:55:49.939Z,1016.4
2018-04-23T00:56:51.911Z,1016.4
2018-04-23T00:57:54.249Z,1016.4
2018-04-23T00:58:55.809Z,1016.3
2018-04-23T00:59:57.371Z,1016.3
2018-04-23T01:00:58.945Z,1016.3
2018-04-23T01:02:00.506Z,1016.3
2018-04-23T01:03:02.066Z,1016.3
2018-04-23T01:04:03.636Z,1016.2
2018-04-23T01:05:05.229Z,1016.2
2018-04-23T01:06:06.787Z,1016.2
2018-04-23T01:07:08.366Z,1016.2
2018-04-23T01:08:09.928Z,1016.1
2018-04-23T01:09:11.493Z,1016.1
2018-04-23T01:10:13.068Z,1016.1
2018-04-23T01:11:14.631Z,1016.1
2018-04-23T01:12:16.204Z,1016.1
2018-04-23T01:13:17.764Z,1016.1
2018-04-23T01:14:19.332Z,1016.1
2018-04-23T01:15:20.904Z,1016.1
2018-04-23T01:16:22.464Z,1016.1
2018-04-23T01:17:24.025Z,1016.1
2018-04-23T01:18:25.576Z,1016.1
2018-04-23T01:19:27.136Z,1016.0
2018-04-23T01:20:28.710Z,1016.1
2018-04-23T01:21:30.261Z,1016.1
2018-04-23T01:22:31.834Z,1016.0
2018-04-23T01:23:33.381Z,1016.0
2018-04-23T01:24:34.950Z,1016.0
2018-04-23T01:25:36.515Z,1016.0
2018-04-23T01:26:38.084Z,1016.0
2018-04-23T01:27:39.638Z,1016.0
2018-04-23T01:28:41.216Z,1015.9
2018-04-23T01:29:42.770Z,1015.9
2018-04-23T01:30:44.343Z,1015.9
2018-04-23T01:31:45.908Z,1015.9
2018-04-23T01:32:47.469Z,1015.9
2018-04-23T01:33:49.034Z,1015.9
2018-04-23T01:34:50.600Z,1015.9
2018-04-23T01:35:52.151Z,1015.9
2018-04-23T01:36:53.712Z,1015.9
2018-04-23T01:37:55.292Z,1016.0
2018-04-23T01:38:56.861Z,1016.0
2018-04-23T01:39:58.425Z,1015.9
2018-04-23T01:40:59.980Z,1015.9
2018-04-23T01:42:01.524Z,1015.9
2018-04-23T01:43:03.084Z,1015.9
2018-04-23T01:44:04.680Z,1015.9
2018-04-23T01:45:06.247Z,1015.8
2018-04-23T01:46:07.807Z,1015.8
2018-04-23T01:47:09.363Z,1015.7
2018-04-23T01:48:10.922Z,1015.8
2018-04-23T01:49:12.470Z,1015.7
2018-04-23T01:50:14.029Z,1015.7
2018-04-23T01:51:15.588Z,1015.7
2018-04-23T01:52:17.140Z,1015.7
2018-04-23T01:53:18.708Z,1015.7
2018-04-23T01:54:20.264Z,1015.7
2018-04-23T01:55:21.830Z,1015.7
2018-04-23T01:56:23.385Z,1015.7
2018-04-23T01:57:24.952Z,1015.8
2018-04-23T01:58:26.514Z,1015.8
2018-04-23T01:59:28.124Z,1015.8
2018-04-23T02:00:29.662Z,1015.8
2018-04-23T02:01:31.208Z,1015.8
2018-04-23T02:02:32.767Z,1015.8
2018-04-23T02:03:34.340Z,1015.8
2018-04-23T02:04:35.886Z,1015.8
2018-04-23T02:05:37.434Z,1015.8
2018-04-23T02:06:38.983Z,1015.8
2018-04-23T02:07:40.551Z,1015.8
2018-04-23T02:08:42.106Z,1015.8
2018-04-23T02:09:43.659Z,1015.8
2018-04-23T02:10:45.252Z,1015.8
2018-04-23T02:11:46.821Z,1015.8
2018-04-23T02:12:48.372Z,1015.8
2018-04-23T02:13:49.940Z,1015.8
2018-04-23T02:14:51.523Z,1015.9
2018-04-23T02:15:53.069Z,1015.8
2018-04-23T02:16:54.635Z,1015.8
2018-04-23T02:17:56.208Z,1015.8
2018-04-23T02:18:57.753Z,1015.8
2018-04-23T02:19:59.303Z,1015.8
2018-04-23T02:21:00.852Z,1015.8
2018-04-23T02:22:02.407Z,1015.8
2018-04-23T02:23:03.969Z,1015.7
2018-04-23T02:24:05.514Z,1015.7
2018-04-23T02:25:07.084Z,1015.7
2018-04-23T02:26:08.639Z,1015.7
2018-04-23T02:27:10.203Z,1015.7
2018-04-23T02:28:11.763Z,1015.7
2018-04-23T02:29:13.324Z,1015.7
2018-04-23T02:30:14.924Z,1015.8
2018-04-23T02:31:16.481Z,1015.8
2018-04-23T02:32:18.035Z,1015.9
2018-04-23T02:33:19.604Z,1015.8
2018-04-23T02:34:21.168Z,1015.9
2018-04-23T02:35:22.729Z,1015.9
2018-04-23T02:36:24.278Z,1015.8
2018-04-23T02:37:25.871Z,1015.8
2018-04-23T02:38:27.415Z,1015.8
2018-04-23T02:39:28.974Z,1015.8
2018-04-23T02:40:30.531Z,1015.8
2018-04-23T02:41:32.088Z,1015.8
2018-04-23T02:42:33.647Z,1015.8
2018-04-23T02:43:35.201Z,1015.8
2018-04-23T02:44:36.756Z,1015.8
2018-04-23T02:45:39.245Z,1015.9
2018-04-23T02:46:40.811Z,1015.9
2018-04-23T02:47:42.410Z,1015.9
2018-04-23T02:48:49.781Z,1015.9
2018-04-23T02:49:57.107Z,1015.9
2018-04-23T02:51:00.739Z,1015.8
2018-04-23T02:52:03.750Z,1015.9
2018-04-23T02:53:08.773Z,1015.9
2018-04-23T02:54:10.352Z,1015.9
2018-04-23T02:55:11.907Z,1015.9
2018-04-23T02:56:13.458Z,1015.9
2018-04-23T02:57:15.012Z,1015.8
2018-04-23T02:58:16.598Z,1015.9
2018-04-23T02:59:18.162Z,1015.9
2018-04-23T03:00:19.727Z,1015.9
2018-04-23T03:01:21.288Z,1015.9
2018-04-23T03:02:22.847Z,1015.9
2018-04-23T03:03:24.395Z,1015.9
2018-04-23T03:04:25.953Z,1015.9
2018-04-23T03:05:27.510Z,1015.9
2018-04-23T03:06:29.076Z,1015.9
2018-04-23T03:07:30.665Z,1015.9
2018-04-23T03:08:32.235Z,1015.9
2018-04-23T03:09:33.789Z,1015.9
2018-04-23T03:10:35.380Z,1015.9
2018-04-23T03:11:36.940Z,1015.9
2018-04-23T03:12:38.504Z,1015.9
2018-04-23T03:13:40.057Z,1015.9
2018-04-23T03:14:41.618Z,1015.9
2018-04-23T03:15:43.173Z,1015.8
2018-04-23T03:16:44.733Z,1015.8
2018-04-23T03:17:46.293Z,1015.8
2018-04-23T03:18:47.845Z,1015.8
2018-04-23T03:19:49.401Z,1015.8
2018-04-23T03:20:50.968Z,1015.8
2018-04-23T03:21:52.523Z,1015.8
2018-04-23T03:22:54.091Z,1015.9
2018-04-23T03:23:55.660Z,1015.8
2018-04-23T03:24:57.312Z,1015.8
2018-04-23T03:25:58.876Z,1015.8
2018-04-23T03:27:00.437Z,1015.9
2018-04-23T03:28:02.049Z,1015.8
2018-04-23T03:29:03.618Z,1015.8
2018-04-23T03:30:05.207Z,1015.8
2018-04-23T03:31:06.757Z,1015.8
2018-04-23T03:32:08.319Z,1015.8
2018-04-23T03:33:09.869Z,1015.8
2018-04-23T03:34:11.417Z,1015.8
2018-04-23T03:35:12.974Z,1015.9
2018-04-23T03:36:14.534Z,1015.9
2018-04-23T03:37:16.101Z,1015.9
2018-04-23T03:38:17.650Z,1015.9
2018-04-23T03:39:19.228Z,1015.8
2018-04-23T03:40:20.789Z,1015.8
2018-04-23T03:41:22.340Z,1015.8
2018-04-23T03:42:23.902Z,1015.8
2018-04-23T03:43:25.506Z,1015.9
2018-04-23T03:44:27.068Z,1015.8
2018-04-23T03:45:28.611Z,1015.8
2018-04-23T03:46:30.168Z,1015.8
2018-04-23T03:47:31.709Z,1015.8
2018-04-23T03:48:33.272Z,1015.8
2018-04-23T03:49:34.836Z,1015.8
2018-04-23T03:50:36.410Z,1015.8
2018-04-23T03:51:37.970Z,1015.8
2018-04-23T03:52:39.531Z,1015.7
2018-04-23T03:53:41.086Z,1015.7
2018-04-23T03:54:42.658Z,1015.6
2018-04-23T03:55:44.227Z,1015.6
2018-04-23T03:56:45.792Z,1015.6
2018-04-23T03:57:47.443Z,1015.6
2018-04-23T03:58:48.918Z,1015.6
2018-04-23T03:59:50.496Z,1015.6
2018-04-23T04:00:52.056Z,1015.6
2018-04-23T04:01:53.617Z,1015.6
2018-04-23T04:02:55.165Z,1015.6
2018-04-23T04:03:56.720Z,1015.6
2018-04-23T04:04:58.277Z,1015.5
2018-04-23T04:05:59.826Z,1015.6
2018-04-23T04:07:01.373Z,1015.6
2018-04-23T04:08:02.927Z,1015.6
2018-04-23T04:09:04.491Z,1015.7
2018-04-23T04:10:06.040Z,1015.7
2018-04-23T04:11:07.604Z,1015.7
2018-04-23T04:12:09.188Z,1015.7
2018-04-23T04:13:10.769Z,1015.7
2018-04-23T04:14:12.330Z,1015.6
2018-04-23T04:15:13.889Z,1015.7
2018-04-23T04:16:15.451Z,1015.7
2018-04-23T04:17:17.007Z,1015.6
2018-04-23T04:18:18.566Z,1015.7
2018-04-23T04:19:20.123Z,1015.6
2018-04-23T04:20:21.700Z,1015.6
2018-04-23T04:21:23.260Z,1015.6
2018-04-23T04:22:24.833Z,1015.6
2018-04-23T04:23:26.398Z,1015.6
2018-04-23T04:24:27.969Z,1015.6
2018-04-23T04:25:29.538Z,1015.6
2018-04-23T04:26:31.110Z,1015.6
2018-04-23T04:27:32.732Z,1015.7
2018-04-23T04:28:34.280Z,1015.6
2018-04-23T04:29:35.842Z,1015.7
2018-04-23T04:30:37.427Z,1015.7
2018-04-23T04:31:38.991Z,1015.7
2018-04-23T04:32:40.553Z,1015.7
2018-04-23T04:33:42.109Z,1015.7
2018-04-23T04:34:43.665Z,1015.7
2018-04-23T04:35:45.286Z,1015.7
2018-04-23T04:36:46.801Z,1015.7
2018-04-23T04:37:48.383Z,1015.7
2018-04-23T04:38:49.940Z,1015.7
2018-04-23T04:39:51.494Z,1015.7
2018-04-23T04:40:53.055Z,1015.6
2018-04-23T04:41:54.617Z,1015.6
2018-04-23T04:42:56.187Z,1015.6
2018-04-23T04:43:57.812Z,1015.7
2018-04-23T04:44:59.333Z,1015.7
2018-04-23T04:46:00.900Z,1015.6
2018-04-23T04:47:02.463Z,1015.6
2018-04-23T04:48:04.007Z,1015.7
2018-04-23T04:49:05.565Z,1015.7
2018-04-23T04:50:07.118Z,1015.6
2018-04-23T04:51:08.684Z,1015.7
2018-04-23T04:52:10.248Z,1015.7
2018-04-23T04:53:11.803Z,1015.7
2018-04-23T04:54:13.357Z,1015.7
2018-04-23T04:55:14.929Z,1015.7
2018-04-23T04:56:16.495Z,1015.7
2018-04-23T04:57:18.053Z,1015.7
2018-04-23T04:58:19.611Z,1015.8
2018-04-23T04:59:21.163Z,1015.8
2018-04-23T05:00:22.715Z,1015.8
2018-04-23T05:01:24.275Z,1015.8
2018-04-23T05:02:25.821Z,1015.8
2018-04-23T05:03:27.384Z,1015.8
2018-04-23T05:04:28.949Z,1015.8
2018-04-23T05:05:30.518Z,1015.8
2018-04-23T05:06:32.073Z,1015.7
2018-04-23T05:07:33.635Z,1015.7
2018-04-23T05:08:35.196Z,1015.7
2018-04-23T05:09:37.313Z,1015.7
2018-04-23T05:10:38.865Z,1015.7
2018-04-23T05:11:40.426Z,1015.8
2018-04-23T05:12:41.985Z,1015.8
2018-04-23T05:13:43.544Z,1015.8
2018-04-23T05:14:45.096Z,1015.8
2018-04-23T05:15:46.649Z,1015.8
2018-04-23T05:16:48.192Z,1015.8
2018-04-23T05:17:49.752Z,1015.9
2018-04-23T05:18:51.313Z,1015.8
2018-04-23T05:19:52.867Z,1015.8
2018-04-23T05:20:54.440Z,1015.8
2018-04-23T05:21:56.017Z,1015.8
2018-04-23T05:22:57.569Z,1015.7
2018-04-23T05:23:59.146Z,1015.8
2018-04-23T05:25:00.701Z,1015.8
2018-04-23T05:26:02.261Z,1015.7
2018-04-23T05:27:03.825Z,1015.7
2018-04-23T05:28:05.381Z,1015.7
2018-04-23T05:29:06.939Z,1015.7
2018-04-23T05:30:08.509Z,1015.7
2018-04-23T05:31:10.066Z,1015.7
2018-04-23T05:32:11.636Z,1015.7
2018-04-23T05:33:13.198Z,1015.7
2018-04-23T05:34:14.760Z,1015.8
2018-04-23T05:35:16.320Z,1015.7
2018-04-23T05:36:17.878Z,1015.7
2018-04-23T05:37:19.443Z,1015.7
2018-04-23T05:38:21.014Z,1015.8
2018-04-23T05:39:22.585Z,1015.9
2018-04-23T05:40:24.148Z,1015.9
2018-04-23T05:41:25.714Z,1015.8
2018-04-23T05:42:27.287Z,1015.8
2018-04-23T05:43:28.834Z,1015.9
2018-04-23T05:44:30.418Z,1015.9
2018-04-23T05:45:31.982Z,1015.9
2018-04-23T05:46:33.536Z,1016.0
2018-04-23T05:47:35.106Z,1016.0
2018-04-23T05:48:36.666Z,1015.9
2018-04-23T05:49:38.230Z,1015.9
2018-04-23T05:50:39.805Z,1015.9
2018-04-23T05:51:41.382Z,1015.9
2018-04-23T05:52:42.929Z,1016.0
2018-04-23T05:53:44.503Z,1016.0
2018-04-23T05:54:46.062Z,1016.1
2018-04-23T05:55:47.621Z,1016.0
2018-04-23T05:56:49.181Z,1016.0
2018-04-23T05:57:50.748Z,1016.0
2018-04-23T05:58:52.311Z,1016.1
2018-04-23T05:59:53.869Z,1016.0
2018-04-23T06:00:55.428Z,1016.0
2018-04-23T06:01:56.988Z,1016.0
2018-04-23T06:02:58.547Z,1016.0
2018-04-23T06:04:00.110Z,1016.1
2018-04-23T06:05:01.680Z,1016.0
2018-04-23T06:06:03.293Z,1016.0
2018-04-23T06:07:04.858Z,1016.1
2018-04-23T06:08:06.407Z,1016.1
2018-04-23T06:09:07.964Z,1016.1
2018-04-23T06:10:09.524Z,1016.1
2018-04-23T06:11:11.085Z,1016.1
2018-04-23T06:12:12.656Z,1016.1
2018-04-23T06:13:14.215Z,1016.1
2018-04-23T06:14:15.774Z,1016.1
2018-04-23T06:15:17.333Z,1016.0
2018-04-23T06:16:18.891Z,1016.0
2018-04-23T06:17:20.461Z,1016.1
2018-04-23T06:18:22.023Z,1016.0
2018-04-23T06:19:23.591Z,1016.1
2018-04-23T06:20:25.150Z,1016.1
2018-04-23T06:21:26.709Z,1016.1
2018-04-23T06:22:28.262Z,1016.1
2018-04-23T06:23:29.824Z,1016.2
2018-04-23T06:24:31.385Z,1016.1
2018-04-23T06:25:32.957Z,1016.1
2018-04-23T06:26:34.522Z,1016.2
2018-04-23T06:27:36.090Z,1016.1
2018-04-23T06:28:37.670Z,1016.1
2018-04-23T06:29:39.253Z,1016.2
2018-04-23T06:30:40.815Z,1016.2
2018-04-23T06:31:42.542Z,1016.2
2018-04-23T06:32:44.112Z,1016.2
2018-04-23T06:33:45.706Z,1016.3
2018-04-23T06:34:47.290Z,1016.3
2018-04-23T06:35:48.861Z,1016.2
2018-04-23T06:36:50.440Z,1016.3
2018-04-23T06:37:52.010Z,1016.3
2018-04-23T06:38:53.597Z,1016.3
2018-04-23T06:39:55.161Z,1016.4
2018-04-23T06:40:56.725Z,1016.4
2018-04-23T06:41:58.283Z,1016.3
2018-04-23T06:42:59.849Z,1016.4
2018-04-23T06:44:01.417Z,1016.4
2018-04-23T06:45:03.007Z,1016.4
2018-04-23T06:46:04.599Z,1016.4
2018-04-23T06:47:06.167Z,1016.4
2018-04-23T06:48:07.734Z,1016.4
2018-04-23T06:49:09.302Z,1016.4
2018-04-23T06:50:10.866Z,1016.4
2018-04-23T06:51:12.469Z,1016.4
2018-04-23T06:52:14.003Z,1016.5
2018-04-23T06:53:15.573Z,1016.5
2018-04-23T06:54:17.141Z,1016.5
2018-04-23T06:55:18.702Z,1016.5
2018-04-23T06:56:20.285Z,1016.5
2018-04-23T06:57:21.846Z,1016.5
2018-04-23T06:58:23.402Z,1016.5
2018-04-23T06:59:24.962Z,1016.5
2018-04-23T07:00:26.536Z,1016.6
2018-04-23T07:01:28.102Z,1016.5
2018-04-23T07:02:29.664Z,1016.6
2018-04-23T07:03:31.249Z,1016.6
2018-04-23T07:04:32.803Z,1016.6
2018-04-23T07:05:34.364Z,1016.6
2018-04-23T07:06:35.941Z,1016.6
2018-04-23T07:07:37.519Z,1016.6
2018-04-23T07:08:39.080Z,1016.7
2018-04-23T07:09:40.710Z,1016.6
2018-04-23T07:10:42.265Z,1016.7
2018-04-23T07:11:43.877Z,1016.7
2018-04-23T07:12:45.554Z,1016.8
2018-04-23T07:13:47.121Z,1016.7
2018-04-23T07:14:49.675Z,1016.7
2018-04-23T07:15:51.238Z,1016.8
2018-04-23T07:16:52.812Z,1016.8
2018-04-23T07:17:54.389Z,1016.8
2018-04-23T07:18:55.966Z,1016.8
2018-04-23T07:19:57.546Z,1016.9
2018-04-23T07:20:59.115Z,1016.9
2018-04-23T07:22:00.677Z,1017.0
2018-04-23T07:23:02.266Z,1016.9
2018-04-23T07:24:03.854Z,1016.9
2018-04-23T07:25:05.408Z,1016.9
2018-04-23T07:26:07.003Z,1016.9
2018-04-23T07:27:08.562Z,1017.0
2018-04-23T07:28:10.131Z,1016.9
2018-04-23T07:29:11.701Z,1016.9
2018-04-23T07:30:13.294Z,1016.9
2018-04-23T07:31:14.878Z,1016.9
2018-04-23T07:32:16.497Z,1016.9
2018-04-23T07:33:18.092Z,1016.9
2018-04-23T07:34:19.689Z,1017.0
2018-04-23T07:35:21.300Z,1017.0
2018-04-23T07:36:22.905Z,1017.0
2018-04-23T07:37:24.514Z,1017.0
2018-04-23T07:38:26.106Z,1016.9
2018-04-23T07:39:27.737Z,1017.0
2018-04-23T07:40:29.308Z,1017.0
2018-04-23T07:41:30.923Z,1017.0
2018-04-23T07:42:32.566Z,1017.0
2018-04-23T07:43:34.140Z,1017.0
2018-04-23T07:44:35.740Z,1017.0
2018-04-23T07:45:37.399Z,1017.0
2018-04-23T07:46:38.961Z,1017.0
2018-04-23T07:47:40.585Z,1017.0
2018-04-23T07:48:42.206Z,1017.0
2018-04-23T07:49:43.820Z,1017.1
2018-04-23T07:50:45.403Z,1017.0
2018-04-23T07:51:47.085Z,1017.1
2018-04-23T07:52:48.648Z,1017.1
2018-04-23T07:53:50.241Z,1017.1
2018-04-23T07:54:51.806Z,1017.1
2018-04-23T07:55:53.371Z,1017.2
2018-04-23T07:56:54.943Z,1017.1
2018-04-23T07:57:56.509Z,1017.1
2018-04-23T07:58:58.079Z,1017.1
2018-04-23T07:59:59.673Z,1017.1
2018-04-23T08:01:01.231Z,1017.1
2018-04-23T08:02:02.797Z,1017.1
2018-04-23T08:03:04.376Z,1017.1
2018-04-23T08:04:05.985Z,1017.1
2018-04-23T08:05:07.552Z,1017.1
2018-04-23T08:06:09.118Z,1017.2
2018-04-23T08:07:10.686Z,1017.2
2018-04-23T08:08:12.254Z,1017.2
2018-04-23T08:09:13.843Z,1017.2
2018-04-23T08:10:15.537Z,1017.2
2018-04-23T08:11:17.106Z,1017.2
2018-04-23T08:12:18.698Z,1017.2
2018-04-23T08:13:20.279Z,1017.2
2018-04-23T08:14:21.855Z,1017.1
2018-04-23T08:15:23.502Z,1017.1
2018-04-23T08:16:25.079Z,1017.1
2018-04-23T08:17:26.641Z,1017.1
2018-04-23T08:18:28.204Z,1017.1
2018-04-23T08:19:29.770Z,1017.1
2018-04-23T08:20:31.349Z,1017.2
2018-04-23T08:21:32.924Z,1017.1
2018-04-23T08:22:34.502Z,1017.1
2018-04-23T08:23:36.067Z,1017.1
2018-04-23T08:24:37.641Z,1017.1
2018-04-23T08:25:39.215Z,1017.1
2018-04-23T08:26:40.778Z,1017.1
2018-04-23T08:27:42.330Z,1017.2
2018-04-23T08:28:43.892Z,1017.1
2018-04-23T08:29:45.460Z,1017.1
2018-04-23T08:30:47.021Z,1017.2
2018-04-23T08:31:48.630Z,1017.2
2018-04-23T08:32:50.177Z,1017.2
2018-04-23T08:33:51.754Z,1017.2
2018-04-23T08:34:53.338Z,1017.2
2018-04-23T08:35:54.906Z,1017.2
2018-04-23T08:36:56.473Z,1017.2
2018-04-23T08:37:58.032Z,1017.2
2018-04-23T08:38:59.601Z,1017.2
2018-04-23T08:40:01.180Z,1017.2
2018-04-23T08:41:02.755Z,1017.2
2018-04-23T08:42:04.343Z,1017.1
2018-04-23T08:43:05.937Z,1017.0
2018-04-23T08:44:07.499Z,1017.1
2018-04-23T08:45:09.192Z,1017.1
2018-04-23T08:46:10.668Z,1017.1
2018-04-23T08:47:12.255Z,1017.1
2018-04-23T08:48:13.833Z,1017.1
2018-04-23T08:49:15.427Z,1017.1
2018-04-23T08:50:17.025Z,1017.1
2018-04-23T08:51:18.605Z,1017.1
2018-04-23T08:52:20.183Z,1017.1
2018-04-23T08:53:21.760Z,1017.0
2018-04-23T08:54:23.366Z,1017.1
2018-04-23T08:55:24.940Z,1017.1
2018-04-23T08:56:26.519Z,1017.0
2018-04-23T08:57:28.107Z,1017.0
2018-04-23T08:58:29.684Z,1017.0
2018-04-23T08:59:31.269Z,1017.0
2018-04-23T09:00:32.858Z,1017.1
2018-04-23T09:01:34.482Z,1017.0
2018-04-23T09:02:36.030Z,1017.1
2018-04-23T09:03:37.596Z,1017.0
2018-04-23T09:04:39.182Z,1017.0
2018-04-23T09:05:40.763Z,1017.0
2018-04-23T09:06:42.335Z,1017.0
2018-04-23T09:07:43.909Z,1017.1
2018-04-23T09:08:45.496Z,1017.1
2018-04-23T09:09:47.065Z,1017.1
2018-04-23T09:10:48.650Z,1017.0
2018-04-23T09:11:50.260Z,1017.0
2018-04-23T09:12:51.804Z,1017.1
2018-04-23T09:13:53.380Z,1017.0
2018-04-23T09:14:54.963Z,1017.0
2018-04-23T09:15:56.547Z,1017.0
2018-04-23T09:16:58.129Z,1017.1
2018-04-23T09:17:59.696Z,1017.1
2018-04-23T09:19:01.260Z,1017.1
2018-04-23T09:20:02.824Z,1017.2
2018-04-23T09:21:04.402Z,1017.1
2018-04-23T09:22:05.972Z,1017.1
2018-04-23T09:23:07.547Z,1017.1
2018-04-23T09:24:09.107Z,1017.1
2018-04-23T09:25:10.667Z,1017.1
2018-04-23T09:26:12.241Z,1017.1
2018-04-23T09:27:13.812Z,1017.2
2018-04-23T09:28:15.657Z,1017.2
2018-04-23T09:29:17.976Z,1017.2
2018-04-23T09:30:19.616Z,1017.2
2018-04-23T09:31:21.270Z,1017.3
2018-04-23T09:32:22.903Z,1017.3
2018-04-23T09:33:25.093Z,1017.2
2018-04-23T09:34:27.023Z,1017.2
2018-04-23T09:35:28.879Z,1017.3
2018-04-23T09:36:30.715Z,1017.3
2018-04-23T09:37:32.486Z,1017.3
2018-04-23T09:38:34.223Z,1017.3
2018-04-23T09:39:36.093Z,1017.3
2018-04-23T09:40:37.803Z,1017.3
2018-04-23T09:41:39.625Z,1017.3
2018-04-23T09:42:41.503Z,1017.3
2018-04-23T09:43:43.324Z,1017.3
2018-04-23T09:44:45.282Z,1017.3
2018-04-23T09:45:47.012Z,1017.4
2018-04-23T09:46:48.803Z,1017.4
2018-04-23T09:47:51.337Z,1017.4
2018-04-23T09:48:53.064Z,1017.4
2018-04-23T09:49:54.847Z,1017.4
2018-04-23T09:50:56.557Z,1017.4
2018-04-23T09:51:58.346Z,1017.4
2018-04-23T09:53:00.092Z,1017.4
2018-04-23T09:54:01.747Z,1017.4
2018-04-23T09:55:03.449Z,1017.4
2018-04-23T09:56:05.192Z,1017.4
2018-04-23T09:57:06.906Z,1017.4
2018-04-23T09:58:08.581Z,1017.4
2018-04-23T09:59:10.288Z,1017.4
2018-04-23T10:00:13.398Z,1017.4
2018-04-23T10:01:16.658Z,1017.3
2018-04-23T10:02:19.974Z,1017.3
2018-04-23T10:03:21.795Z,1017.3
2018-04-23T10:04:23.447Z,1017.3
2018-04-23T10:05:25.078Z,1017.3
2018-04-23T10:06:26.748Z,1017.3
2018-04-23T10:07:28.385Z,1017.3
2018-04-23T10:08:30.012Z,1017.3
2018-04-23T10:09:31.621Z,1017.3
2018-04-23T10:10:33.221Z,1017.3
2018-04-23T10:11:34.849Z,1017.3
2018-04-23T10:12:36.562Z,1017.2
2018-04-23T10:13:38.193Z,1017.2
2018-04-23T10:14:39.845Z,1017.2
2018-04-23T10:15:41.465Z,1017.2
2018-04-23T10:16:43.107Z,1017.2
2018-04-23T10:17:44.765Z,1017.2
2018-04-23T10:18:46.387Z,1017.2
2018-04-23T10:19:48.034Z,1017.2
2018-04-23T10:20:49.678Z,1017.3
2018-04-23T10:21:51.361Z,1017.3
2018-04-23T10:22:53.042Z,1017.3
2018-04-23T10:23:54.760Z,1017.3
2018-04-23T10:24:56.489Z,1017.3
2018-04-23T10:25:58.064Z,1017.3
2018-04-23T10:26:59.706Z,1017.3
2018-04-23T10:28:01.384Z,1017.3
2018-04-23T10:29:02.967Z,1017.3
2018-04-23T10:30:04.682Z,1017.3
2018-04-23T10:31:06.362Z,1017.2
2018-04-23T10:32:08.085Z,1017.2
2018-04-23T10:33:09.742Z,1017.2
2018-04-23T10:34:11.418Z,1017.2
2018-04-23T10:35:13.136Z,1017.2
2018-04-23T10:36:14.851Z,1017.2
2018-04-23T10:37:16.480Z,1017.2
2018-04-23T10:38:18.165Z,1017.2
2018-04-23T10:39:19.839Z,1017.2
2018-04-23T10:40:21.533Z,1017.2
2018-04-23T10:41:23.219Z,1017.1
2018-04-23T10:42:24.856Z,1017.1
2018-04-23T10:43:26.517Z,1017.1
2018-04-23T10:44:28.209Z,1017.1
2018-04-23T10:45:29.969Z,1017.1
2018-04-23T10:46:31.536Z,1017.1
2018-04-23T10:47:33.207Z,1017.0
2018-04-23T10:48:34.871Z,1017.0
2018-04-23T10:49:36.491Z,1017.0
2018-04-23T10:50:38.120Z,1016.9
2018-04-23T10:51:39.743Z,1017.0
2018-04-23T10:52:41.442Z,1017.0
2018-04-23T10:53:43.047Z,1017.0
2018-04-23T10:54:44.654Z,1017.0
2018-04-23T10:55:46.274Z,1017.0
2018-04-23T10:56:48.000Z,1017.0
2018-04-23T10:57:49.589Z,1017.0
2018-04-23T10:58:51.245Z,1017.0
2018-04-23T10:59:52.856Z,1017.1
2018-04-23T11:00:54.481Z,1017.1
2018-04-23T11:01:56.109Z,1017.0
2018-04-23T11:02:57.727Z,1017.0
2018-04-23T11:03:59.367Z,1017.0
2018-04-23T11:05:01.010Z,1017.0
2018-04-23T11:06:02.673Z,1017.0
2018-04-23T11:07:04.317Z,1017.0
2018-04-23T11:08:05.953Z,1017.0
2018-04-23T11:09:07.636Z,1017.0
2018-04-23T11:10:09.317Z,1017.1
2018-04-23T11:11:10.979Z,1017.0
2018-04-23T11:12:12.679Z,1017.0
2018-04-23T11:13:14.342Z,1017.0
2018-04-23T11:14:16.016Z,1017.0
2018-04-23T11:15:17.673Z,1017.0
2018-04-23T11:16:19.318Z,1017.0
2018-04-23T11:17:20.927Z,1017.0
2018-04-23T11:18:22.584Z,1017.0
2018-04-23T11:19:24.286Z,1017.0
2018-04-23T11:20:25.995Z,1017.0
2018-04-23T11:21:27.624Z,1017.0
2018-04-23T11:22:29.304Z,1017.0
2018-04-23T11:23:30.931Z,1016.9
2018-04-23T11:24:32.587Z,1017.0
2018-04-23T11:25:34.237Z,1016.9
2018-04-23T11:26:35.921Z,1016.9
2018-04-23T11:27:37.661Z,1016.9
2018-04-23T11:28:39.283Z,1016.8
2018-04-23T11:29:40.958Z,1016.8
2018-04-23T11:30:42.570Z,1016.7
2018-04-23T11:31:44.206Z,1016.7
2018-04-23T11:32:45.842Z,1016.7
2018-04-23T11:33:47.481Z,1016.7
2018-04-23T11:34:50.004Z,1016.7
2018-04-23T11:35:51.635Z,1016.7
2018-04-23T11:36:53.359Z,1016.7
2018-04-23T11:37:55.018Z,1016.6
2018-04-23T11:38:56.719Z,1016.7
2018-04-23T11:39:58.349Z,1016.7
2018-04-23T11:40:59.979Z,1016.7
2018-04-23T11:42:01.666Z,1016.7
2018-04-23T11:43:03.316Z,1016.7
2018-04-23T11:44:05.024Z,1016.7
2018-04-23T11:45:06.709Z,1016.7
2018-04-23T11:46:08.440Z,1016.7
2018-04-23T11:47:10.060Z,1016.8
2018-04-23T11:48:11.670Z,1016.7
2018-04-23T11:49:13.287Z,1016.8
2018-04-23T11:50:14.972Z,1016.8
2018-04-23T11:51:16.593Z,1016.7
2018-04-23T11:52:18.197Z,1016.7
2018-04-23T11:53:19.876Z,1016.8
2018-04-23T11:54:21.539Z,1016.8
2018-04-23T11:55:23.153Z,1016.8
2018-04-23T11:56:24.832Z,1016.9
2018-04-23T11:57:26.573Z,1017.1
2018-04-23T11:58:28.257Z,1017.4
2018-04-23T11:59:30.367Z,1017.5
2018-04-23T12:00:31.996Z,1017.5
2018-04-23T12:01:33.645Z,1017.6
2018-04-23T12:02:35.425Z,1017.6
2018-04-23T12:03:37.096Z,1017.6
2018-04-23T12:04:38.805Z,1017.6
2018-04-23T12:05:40.579Z,1017.6
2018-04-23T12:06:42.258Z,1017.6
2018-04-23T12:07:43.990Z,1017.6
2018-04-23T12:08:45.713Z,1017.6
2018-04-23T12:09:47.364Z,1017.6
2018-04-23T12:10:49.126Z,1017.6
2018-04-23T12:11:50.849Z,1017.7
2018-04-23T12:12:52.571Z,1017.7
2018-04-23T12:13:54.541Z,1017.6
2018-04-23T12:14:56.461Z,1017.6
2018-04-23T12:15:58.313Z,1017.5
2018-04-23T12:17:00.155Z,1017.5
2018-04-23T12:18:02.021Z,1017.4
2018-04-23T12:19:03.925Z,1017.5
2018-04-23T12:20:05.943Z,1017.5
2018-04-23T12:21:08.254Z,1017.5
2018-04-23T12:22:10.085Z,1017.5
2018-04-23T12:23:12.151Z,1017.5
2018-04-23T12:24:13.926Z,1017.5
2018-04-23T12:25:15.750Z,1017.5
2018-04-23T12:26:17.688Z,1017.5
2018-04-23T12:27:19.682Z,1017.5
2018-04-23T12:28:22.242Z,1017.5
2018-04-23T12:29:24.279Z,1017.5
2018-04-23T12:30:25.955Z,1017.5
2018-04-23T12:31:27.707Z,1017.6
2018-04-23T12:32:29.565Z,1017.6
2018-04-23T12:33:31.416Z,1017.6
2018-04-23T12:34:33.274Z,1017.5
2018-04-23T12:35:35.294Z,1017.6
2018-04-23T12:36:39.290Z,1017.7
2018-04-23T12:37:41.902Z,1017.6
2018-04-23T12:38:44.663Z,1017.6
2018-04-23T12:39:47.018Z,1017.7
2018-04-23T12:40:50.073Z,1017.6
2018-04-23T12:41:52.564Z,1017.6
2018-04-23T12:42:54.845Z,1017.6
2018-04-23T12:43:57.085Z,1017.6
2018-04-23T12:44:59.263Z,1017.7
2018-04-23T12:46:01.513Z,1017.6
2018-04-23T12:47:03.583Z,1017.7
2018-04-23T12:48:06.012Z,1017.7
2018-04-23T12:49:08.329Z,1017.7